< < Back
Terminal Aerodrome Forecast


Current Version              Previous Versions:   1  2  3  4  5  6  7  8  9  

Terminal Aerodrome Forecast

524
FTUS42 KTAE 192300
TAFABY
TAF
KABY 192332Z 2000/2024 VRB03KT P6SM OVC100
     FM200500 03003KT 6SM -RA BKN040 OVC100
     FM201300 04005KT P6SM BKN050 OVC100=



Latest METAR

005
SAUS70 KWBC 200800 RRG
MTRABY
METAR KABY 200753Z 04003KT 10SM OVC046 10/08 A3014 RMK AO2 RAE0655
SLP207 P0000 T01000083


USA.gov is the U.S. government's official web portal to all federal, state and local government web resources and services.